ENFA weather

Flatval Airport
Frøya, Sør-Trøndelag, Norway

Public forecast

Using degrees Celsius for public forecast. Weather courtesy of forecast.io.

METAR (pilot weather report)

Closest report is Ørland Airport, 22.4 nm (41.6 km) E. Retrieved 2019/07/23 06:20 UTC (0 seconds ago):

ENOL 230620Z 26010KT 9999 SCT008 BKN012 15/14 Q1013 TEMPO BKN008

TAF (pilot weather forecast)

Closest forecast is Ørland Airport, 22.4 nm (41.6 km) E. Retrieved 2019/07/23 06:57 UTC (0 seconds ago):

TAF ENOL 230500Z 2306/2406 26012KT 9999 SCT010 BKN025 TEMPO 2306/2311 BKN010 PROB30 TEMPO 2306/2309 4000 RADZ BR BKN008 BECMG 2310/2312 VRB05KT TEMPO 2321/2403 RADZ BKN014 BECMG 2403/2406 14010KT